Time;durP1;ratioP1;P1;durP2;ratioP2;P2;SDS_P1;SDS_P2;PMS_P1;PMS_P2;Temp;Humidity;BMP_temperature;BMP_pressure;BME280_temperature;BME280_humidity;BME280_pressure;Samples;Min_cycle;Max_cycle;Signal;HPM_P1;HPM_P2
2023/03/29 00:01:59;;;;;;;8.45;6.07;;;;;;;7.53;63.35;99998.47;5112597;28;20570;-79
2023/03/29 00:04:26;;;;;;;9.57;5.90;;;;;;;7.53;63.37;99997.63;5112762;28;20104;-80
2023/03/29 00:06:54;;;;;;;9.98;6.88;;;;;;;7.49;63.46;99988.19;5111816;28;20112;-80
2023/03/29 00:09:21;;;;;;;9.18;6.38;;;;;;;7.45;63.65;99971.75;5112413;28;20119;-80
2023/03/29 00:11:47;;;;;;;10.35;7.00;;;;;;;7.43;63.72;99981.41;5090154;28;20052;-79
2023/03/29 00:14:14;;;;;;;13.45;7.43;;;;;;;7.38;63.99;99973.75;5091801;28;20404;-79
2023/03/29 00:16:40;;;;;;;10.75;7.20;;;;;;;7.36;63.85;99967.72;5073073;28;20048;-79
2023/03/29 00:19:08;;;;;;;10.45;6.45;;;;;;;7.33;64.04;99962.59;5092105;28;20056;-80
2023/03/29 00:21:34;;;;;;;9.98;7.43;;;;;;;7.31;64.59;99956.56;5091999;28;20179;-79
2023/03/29 00:24:00;;;;;;;11.82;7.20;;;;;;;7.28;64.57;99949.69;5091880;28;20079;-80
2023/03/29 00:26:26;;;;;;;10.43;6.82;;;;;;;7.27;64.53;99953.25;5091101;28;20056;-80
2023/03/29 00:28:55;;;;;;;12.98;7.70;;;;;;;7.26;64.93;99963.78;5091306;28;20182;-80
2023/03/29 00:31:21;;;;;;;13.95;8.02;;;;;;;7.24;64.91;99958.59;5091739;28;20048;-79
2023/03/29 00:33:48;;;;;;;9.15;6.97;;;;;;;7.22;64.88;99949.94;5073547;28;20047;-79
2023/03/29 00:36:15;;;;;;;10.32;7.78;;;;;;;7.21;65.22;99952.63;5091366;28;20052;-78
2023/03/29 00:38:41;;;;;;;12.10;8.90;;;;;;;7.18;65.11;99948.38;5091209;28;20190;-78
2023/03/29 00:41:08;;;;;;;11.57;8.10;;;;;;;7.16;65.15;99939.72;5091209;28;20084;-79
2023/03/29 00:43:51;;;;;;;9.88;7.43;;;;;;;7.10;65.24;99938.19;5091464;28;20120;-79
2023/03/29 00:46:18;;;;;;;11.00;7.97;;;;;;;7.14;65.55;99928.47;5091240;28;20048;-79
2023/03/29 00:48:45;;;;;;;10.32;7.75;;;;;;;7.12;65.69;99931.13;5090913;28;20063;-79
2023/03/29 00:51:14;;;;;;;11.40;7.70;;;;;;;7.13;65.74;99929.34;5073278;28;20058;-81
2023/03/29 00:53:47;;;;;;;10.82;7.43;;;;;;;7.12;65.82;99925.91;5091301;28;20040;-80
2023/03/29 00:56:23;;;;;;;9.55;7.55;;;;;;;7.12;65.58;99928.53;5089943;28;20452;-79
2023/03/29 00:58:56;;;;;;;12.50;7.18;;;;;;;7.13;65.77;99918.88;5091002;28;20056;-80
2023/03/29 01:01:27;;;;;;;;;;;;;;;7.14;64.36;99921.44;5073661;28;20098;-80
2023/03/29 01:04:03;;;;;;;10.57;6.78;;;;;;;7.16;65.15;99927.50;5091241;28;19920;-80
2023/03/29 01:06:33;;;;;;;10.38;6.65;;;;;;;7.19;65.96;99913.41;5090466;28;20052;-80
2023/03/29 01:09:11;;;;;;;15.07;7.53;;;;;;;7.17;65.39;99920.47;5090800;28;20448;-80
2023/03/29 01:11:52;;;;;;;10.93;7.60;;;;;;;7.17;65.40;99912.63;5090963;28;20083;-79
2023/03/29 01:14:25;;;;;;;11.02;7.30;;;;;;;7.22;66.03;99912.44;5090963;28;20048;-80
2023/03/29 01:16:52;;;;;;;10.63;7.43;;;;;;;7.23;66.10;99908.91;5089980;28;20075;-80
2023/03/29 01:19:23;;;;;;;8.13;6.28;;;;;;;7.23;65.99;99908.91;5072784;28;20104;-80
2023/03/29 01:21:56;;;;;;;11.60;7.15;;;;;;;7.22;65.72;99908.03;5090986;28;20110;-80
2023/03/29 01:24:40;;;;;;;9.43;6.68;;;;;;;7.20;65.67;99903.78;5091025;28;20044;-80
2023/03/29 01:27:21;;;;;;;8.48;5.95;;;;;;;7.19;65.39;99900.31;5089940;28;20078;-80
2023/03/29 01:30:00;;;;;;;11.27;6.50;;;;;;;7.16;65.93;99893.44;5091000;28;20043;-79
2023/03/29 01:32:36;;;;;;;9.23;6.72;;;;;;;7.16;65.92;99895.22;5090683;28;20060;-79
2023/03/29 01:35:18;;;;;;;11.65;6.13;;;;;;;7.13;65.84;99888.34;5090363;28;20036;-80
2023/03/29 01:37:52;;;;;;;7.38;5.63;;;;;;;7.15;66.38;99883.03;5072041;28;20079;-80
2023/03/29 01:40:18;;;;;;;11.05;6.20;;;;;;;7.16;66.39;99874.25;5090711;28;20136;-80
2023/03/29 01:42:53;;;;;;;10.20;5.97;;;;;;;7.13;66.36;99870.00;5090568;28;20103;-80
2023/03/29 01:45:26;;;;;;;7.30;5.20;;;;;;;7.13;66.40;99856.91;5090149;28;20051;-79
2023/03/29 01:48:01;;;;;;;;;;;;;;;7.14;65.34;99847.31;5090554;28;20051;-79
2023/03/29 01:50:42;;;;;;;7.35;4.88;;;;;;;7.15;66.10;99847.22;5090292;28;20400;-79
2023/03/29 01:53:16;;;;;;;8.35;5.10;;;;;;;7.16;66.33;99845.47;5090354;28;20052;-79
2023/03/29 01:55:51;;;;;;;7.13;4.70;;;;;;;7.12;66.07;99839.53;5071886;28;20569;-79
2023/03/29 01:58:23;;;;;;;5.60;4.65;;;;;;;7.12;66.12;99842.13;5089929;28;20086;-80
2023/03/29 02:00:54;;;;;;;10.75;4.57;;;;;;;7.13;66.58;99837.72;5090202;28;20570;-79
2023/03/29 02:03:25;;;;;;;6.72;4.65;;;;;;;7.12;66.61;99836.91;5090160;28;20048;-79
2023/03/29 02:05:53;;;;;;;6.03;4.60;;;;;;;7.12;66.97;99836.91;5071600;28;20757;-79
2023/03/29 02:08:22;;;;;;;5.03;4.18;;;;;;;7.13;66.60;99833.38;5089748;28;20073;-79
2023/03/29 02:10:50;;;;;;;6.50;4.68;;;;;;;7.15;66.82;99835.91;5090058;28;20464;-80
2023/03/29 02:13:18;;;;;;;6.47;4.30;;;;;;;7.16;67.07;99838.47;5089879;28;20048;-79
2023/03/29 02:15:46;;;;;;;4.93;4.28;;;;;;;7.18;66.99;99825.31;5089819;28;20094;-80
2023/03/29 02:18:16;;;;;;;7.22;4.45;;;;;;;7.19;66.87;99828.78;5089656;28;20127;-79
2023/03/29 02:20:48;;;;;;;5.68;3.95;;;;;;;7.21;66.82;99824.34;5090048;28;20059;-79
2023/03/29 02:23:36;;;;;;;5.30;3.00;;;;;;;7.21;66.16;99827.78;5089914;28;20463;-79
2023/03/29 02:26:05;;;;;;;5.93;3.63;;;;;;;7.27;66.60;99816.22;5089509;28;20048;-79
2023/03/29 02:28:32;;;;;;;7.68;4.25;;;;;;;7.29;66.88;99814.41;5089538;28;20075;-79
2023/03/29 02:31:06;;;;;;;5.72;3.58;;;;;;;7.28;66.34;99812.69;5089803;28;20559;-79
2023/03/29 02:33:47;;;;;;;8.43;4.30;;;;;;;7.27;66.21;99805.75;5089716;28;20093;-79
2023/03/29 02:36:23;;;;;;;6.32;3.90;;;;;;;7.26;66.49;99801.44;5089296;28;20093;-79
2023/03/29 02:38:51;;;;;;;5.47;4.18;;;;;;;7.26;66.83;99788.34;5089396;28;20105;-79
2023/03/29 02:41:19;;;;;;;4.80;3.92;;;;;;;7.26;66.66;99793.56;5089866;28;20056;-79
2023/03/29 02:43:47;;;;;;;5.55;3.85;;;;;;;7.26;66.64;99788.34;5089743;28;20075;-79
2023/03/29 02:46:17;;;;;;;4.55;3.63;;;;;;;7.25;66.99;99782.25;5089237;28;20101;-79
2023/03/29 02:48:47;;;;;;;5.72;3.90;;;;;;;7.25;66.88;99784.88;5089229;28;20055;-79
2023/03/29 02:51:17;;;;;;;4.25;3.85;;;;;;;7.24;67.12;99777.94;5089547;28;20557;-80
2023/03/29 02:53:56;;;;;;;5.80;3.90;;;;;;;7.24;66.79;99785.78;5089503;28;20040;-79
2023/03/29 02:56:22;;;;;;;5.43;3.67;;;;;;;7.26;67.25;99777.88;5089327;28;20048;-79
2023/03/29 02:58:48;;;;;;;6.75;3.70;;;;;;;7.25;67.14;99765.69;5071114;28;20048;-79
2023/03/29 03:01:17;;;;;;;6.30;3.72;;;;;;;7.24;67.13;99772.69;5089519;28;20047;-79
2023/03/29 03:03:43;;;;;;;7.07;4.28;;;;;;;7.25;66.83;99765.69;5089668;28;20077;-79
2023/03/29 03:06:11;;;;;;;5.30;3.90;;;;;;;7.23;67.00;99762.28;5089339;28;20044;-79
2023/03/29 03:08:37;;;;;;;6.78;4.40;;;;;;;7.21;66.81;99756.28;5088841;28;20506;-79
2023/03/29 03:11:03;;;;;;;4.88;3.65;;;;;;;7.19;67.14;99758.97;5089640;28;20087;-79
2023/03/29 03:13:30;;;;;;;5.57;4.25;;;;;;;7.18;67.14;99754.66;5089351;28;20075;-80
2023/03/29 03:15:56;;;;;;;4.88;3.97;;;;;;;7.15;67.25;99752.97;5070939;28;20105;-79
2023/03/29 03:18:23;;;;;;;6.47;4.00;;;;;;;7.16;67.28;99752.09;5090569;28;20052;-79
2023/03/29 03:20:57;;;;;;;5.20;3.17;;;;;;;7.13;66.63;99753.97;5093188;28;20052;-79
2023/03/29 03:23:24;;;;;;;4.55;3.53;;;;;;;7.15;67.27;99749.53;5093026;28;20112;-80
2023/03/29 03:25:51;;;;;;;7.35;3.72;;;;;;;7.14;67.60;99746.06;5092405;28;20094;-76
2023/03/29 03:28:18;;;;;;;4.38;3.67;;;;;;;7.13;67.37;99749.59;5144725;22;20048;-80
2023/03/29 03:30:45;;;;;;;7.45;4.47;;;;;;;7.14;67.71;99740.81;5093235;28;20051;-79
2023/03/29 03:33:11;;;;;;;7.82;3.60;;;;;;;7.15;67.34;99739.06;5093522;28;20058;-80
2023/03/29 03:35:38;;;;;;;4.53;3.50;;;;;;;7.15;67.54;99741.69;5092887;28;20072;-79
2023/03/29 03:38:04;;;;;;;4.05;3.65;;;;;;;7.17;67.70;99740.69;5091582;28;20048;-79
2023/03/29 03:40:32;;;;;;;5.45;4.07;;;;;;;7.17;67.44;99743.31;5093333;28;20044;-79
2023/03/29 03:42:58;;;;;;;5.00;3.92;;;;;;;7.16;67.60;99730.28;5093263;28;20406;-79
2023/03/29 03:45:25;;;;;;;5.10;3.72;;;;;;;7.16;67.70;99739.00;5092728;28;20051;-78
2023/03/29 03:47:52;;;;;;;9.05;3.92;;;;;;;7.17;67.57;99737.22;5092742;28;20067;-79
2023/03/29 03:50:19;;;;;;;6.18;3.67;;;;;;;7.16;67.58;99736.38;5091556;28;20052;-79
2023/03/29 03:52:45;;;;;;;7.32;4.13;;;;;;;7.17;67.24;99742.44;5093102;28;20051;-79
2023/03/29 03:55:13;;;;;;;6.45;3.85;;;;;;;7.16;67.48;99740.75;5091289;28;20135;-79
2023/03/29 03:57:39;;;;;;;5.88;4.05;;;;;;;7.16;67.49;99732.91;5092887;28;20051;-79
2023/03/29 04:00:18;;;;;;;6.75;4.65;;;;;;;7.13;67.74;99736.50;5092721;28;20055;-79
2023/03/29 04:02:46;;;;;;;5.55;3.88;;;;;;;7.12;67.54;99734.81;5093036;28;20052;-80
2023/03/29 04:05:14;;;;;;;4.90;3.72;;;;;;;7.10;67.71;99731.41;5092427;28;20048;-79
2023/03/29 04:07:41;;;;;;;5.82;3.85;;;;;;;7.09;67.57;99714.00;5092313;28;20048;-79
2023/03/29 04:10:08;;;;;;;7.20;3.97;;;;;;;7.09;67.67;99710.50;5092635;28;20044;-79
2023/03/29 04:12:35;;;;;;;5.15;4.00;;;;;;;7.10;67.91;99717.47;5092798;28;20489;-80
2023/03/29 04:15:02;;;;;;;5.72;4.13;;;;;;;7.10;67.72;99720.91;5092350;28;20050;-79
2023/03/29 04:17:29;;;;;;;6.35;4.43;;;;;;;7.10;67.51;99725.31;5092202;28;20052;-78
2023/03/29 04:19:56;;;;;;;5.35;3.83;;;;;;;7.10;67.82;99722.72;5092498;28;20040;-79
2023/03/29 04:22:24;;;;;;;6.20;4.30;;;;;;;7.10;67.90;99720.91;5092415;28;20074;-79
2023/03/29 04:24:51;;;;;;;6.07;4.03;;;;;;;7.11;68.10;99721.78;5092327;28;20056;-80
2023/03/29 04:27:17;;;;;;;6.65;3.72;;;;;;;7.12;67.89;99716.50;5091650;28;20135;-79
2023/03/29 04:29:45;;;;;;;6.20;3.92;;;;;;;7.14;67.89;99719.88;5092512;28;20055;-79
2023/03/29 04:32:11;;;;;;;5.13;3.80;;;;;;;7.17;67.90;99721.50;5090252;28;20458;-79
2023/03/29 04:34:38;;;;;;;5.80;4.00;;;;;;;7.20;67.92;99708.28;5100607;28;20559;-79
2023/03/29 04:37:09;;;;;;;7.15;3.80;;;;;;;7.22;68.19;99710.84;5103920;28;20066;-79
2023/03/29 04:39:36;;;;;;;6.18;4.25;;;;;;;7.23;68.22;99700.31;5112686;28;20062;-79
2023/03/29 04:42:04;;;;;;;6.43;4.40;;;;;;;7.25;68.20;99697.63;5112433;28;20488;-80
2023/03/29 04:44:32;;;;;;;5.85;4.38;;;;;;;7.25;67.77;99695.84;5112240;28;20055;-79
2023/03/29 04:46:59;;;;;;;6.30;4.22;;;;;;;7.26;67.82;99689.69;5098560;28;20055;-79
2023/03/29 04:49:26;;;;;;;7.47;4.00;;;;;;;7.27;67.72;99687.94;5091791;28;20102;-79
2023/03/29 04:51:53;;;;;;;5.35;3.88;;;;;;;7.27;67.81;99687.94;5092080;28;20117;-79
2023/03/29 04:54:20;;;;;;;8.75;4.53;;;;;;;7.28;67.90;99690.47;5090582;28;20044;-79
2023/03/29 04:56:46;;;;;;;7.00;4.63;;;;;;;7.27;67.70;99680.06;5090540;28;20101;-79
2023/03/29 04:59:13;;;;;;;5.78;4.22;;;;;;;7.27;67.84;99685.31;5101302;28;20043;-79
2023/03/29 05:01:39;;;;;;;7.07;4.90;;;;;;;7.25;67.73;99682.75;5101090;28;20040;-79
2023/03/29 05:04:06;;;;;;;6.63;4.30;;;;;;;7.24;67.56;99680.19;5110748;28;20571;-79
2023/03/29 05:06:32;;;;;;;8.25;4.78;;;;;;;7.23;67.60;99681.13;5110082;28;20059;-78
2023/03/29 05:09:00;;;;;;;6.00;4.57;;;;;;;7.22;67.60;99679.44;5092339;28;20047;-80
2023/03/29 05:11:26;;;;;;;7.72;4.80;;;;;;;7.22;67.81;99679.44;5110516;28;20062;-79
2023/03/29 05:13:56;;;;;;;6.50;4.72;;;;;;;7.22;68.25;99676.81;5110106;28;20051;-79
2023/03/29 05:16:23;;;;;;;6.68;5.00;;;;;;;7.22;67.80;99676.81;5106187;28;20488;-79
2023/03/29 05:18:50;;;;;;;6.28;4.30;;;;;;;7.23;68.05;99674.13;5090692;28;20048;-79
2023/03/29 05:21:17;;;;;;;10.35;5.18;;;;;;;7.24;68.17;99673.22;5091544;28;20056;-79
2023/03/29 05:23:43;;;;;;;6.65;4.57;;;;;;;7.24;68.14;99673.22;5091246;28;20056;-79
2023/03/29 05:26:13;;;;;;;8.23;4.55;;;;;;;7.26;67.99;99673.13;5089555;28;20423;-79
2023/03/29 05:28:40;;;;;;;5.82;4.60;;;;;;;7.26;68.01;99668.72;5090600;28;20440;-80
2023/03/29 05:31:07;;;;;;;7.22;5.13;;;;;;;7.27;68.06;99665.22;5090804;28;20040;-78
2023/03/29 05:33:35;;;;;;;7.63;4.18;;;;;;;7.29;68.09;99668.59;5090890;28;20044;-80
2023/03/29 05:36:07;;;;;;;8.38;5.00;;;;;;;7.27;67.77;99659.13;5090531;28;20051;-79
2023/03/29 05:38:34;;;;;;;5.78;4.00;;;;;;;7.30;68.21;99657.22;5088536;28;20059;-79
2023/03/29 05:41:01;;;;;;;7.43;4.53;;;;;;;7.30;68.11;99659.81;5089087;28;20068;-79
2023/03/29 05:43:28;;;;;;;7.22;4.95;;;;;;;7.34;68.03;99660.56;5088125;28;20092;-80
2023/03/29 05:45:55;;;;;;;6.60;4.60;;;;;;;7.34;67.89;99668.41;5089237;28;20126;-79
2023/03/29 05:48:25;;;;;;;7.07;4.70;;;;;;;7.34;67.72;99671.03;5089408;28;20098;-79
2023/03/29 05:50:54;;;;;;;9.52;5.00;;;;;;;7.37;67.71;99675.28;5088960;28;20052;-79
2023/03/29 05:53:22;;;;;;;5.63;4.25;;;;;;;7.37;68.18;99670.88;5090312;28;20548;-79
2023/03/29 05:55:50;;;;;;;7.63;4.78;;;;;;;7.39;68.12;99673.44;5089920;28;20048;-78
2023/03/29 05:58:19;;;;;;;6.13;4.22;;;;;;;7.39;67.96;99669.06;5088817;28;20056;-79
2023/03/29 06:00:48;;;;;;;8.38;4.75;;;;;;;7.40;67.95;99675.97;5090629;28;20040;-79
2023/03/29 06:03:17;;;;;;;5.50;4.75;;;;;;;7.39;67.99;99679.53;5090749;28;20056;-78
2023/03/29 06:05:53;;;;;;;8.07;4.68;;;;;;;7.41;68.02;99682.06;5090470;28;20083;-78
2023/03/29 06:08:21;;;;;;;;;;;;;;;7.40;66.26;99686.44;5089109;28;20059;-78
2023/03/29 06:10:47;;;;;;;6.90;5.05;;;;;;;7.46;67.93;99687.94;5090461;28;20014;-80
2023/03/29 06:13:14;;;;;;;6.25;4.55;;;;;;;7.46;67.98;99689.72;5090653;28;20559;-78
2023/03/29 06:15:41;;;;;;;8.20;5.05;;;;;;;7.46;68.06;99685.34;5090227;28;20056;-79
2023/03/29 06:18:08;;;;;;;6.63;4.85;;;;;;;7.47;68.18;99687.03;5090408;28;20135;-79
2023/03/29 06:20:35;;;;;;;6.28;4.63;;;;;;;7.46;68.25;99685.34;5090574;28;20063;-79
2023/03/29 06:23:01;;;;;;;7.22;4.75;;;;;;;7.49;68.48;99702.69;5090553;28;20142;-79
2023/03/29 06:25:28;;;;;;;5.63;4.53;;;;;;;7.49;68.50;99693.06;5090132;28;20527;-79
2023/03/29 06:27:55;;;;;;;10.02;5.38;;;;;;;7.50;68.38;99696.50;5090278;28;20158;-78
2023/03/29 06:30:22;;;;;;;10.05;5.75;;;;;;;7.48;68.57;99686.09;5090649;28;20048;-79
2023/03/29 06:32:49;;;;;;;6.88;5.28;;;;;;;7.48;68.62;99682.66;5090337;28;20059;-79
2023/03/29 06:35:16;;;;;;;8.05;5.63;;;;;;;7.47;68.92;99683.56;5089144;28;20495;-79
2023/03/29 06:37:48;;;;;;;9.32;5.75;;;;;;;7.45;69.08;99683.66;5089103;28;20056;-79
2023/03/29 06:40:20;;;;;;;9.00;6.10;;;;;;;7.46;69.41;99689.72;5090161;28;20040;-79
2023/03/29 06:42:47;;;;;;;8.32;5.82;;;;;;;7.45;69.32;99685.41;5090475;28;20385;-79
2023/03/29 06:45:14;;;;;;;7.05;5.78;;;;;;;7.45;69.38;99688.00;5090115;28;20062;-79
2023/03/29 06:47:41;;;;;;;11.43;6.07;;;;;;;7.45;69.84;99683.66;5090170;28;20090;-79
2023/03/29 06:50:09;;;;;;;9.25;6.25;;;;;;;7.45;69.92;99675.78;5089984;28;20048;-79
2023/03/29 06:52:35;;;;;;;11.18;6.47;;;;;;;7.48;70.54;99682.66;5090240;28;20075;-79
2023/03/29 06:55:04;;;;;;;11.98;6.82;;;;;;;7.48;70.42;99690.50;5093237;28;20102;-79
2023/03/29 06:57:33;;;;;;;10.32;6.55;;;;;;;7.50;70.78;99686.03;5092404;28;20062;-79
2023/03/29 07:00:00;;;;;;;12.13;7.03;;;;;;;7.53;70.98;99680.66;5094178;28;20058;-79
2023/03/29 07:02:27;;;;;;;10.38;6.70;;;;;;;7.55;71.14;99690.16;5092793;28;20048;-79
2023/03/29 07:04:55;;;;;;;13.10;7.60;;;;;;;7.58;71.16;99691.78;5093525;28;20098;-79
2023/03/29 07:07:23;;;;;;;11.18;7.57;;;;;;;7.62;71.33;99693.34;5094062;28;20047;-79
2023/03/29 07:09:52;;;;;;;11.57;7.38;;;;;;;7.66;71.79;99694.91;5093975;28;20139;-79
2023/03/29 07:12:21;;;;;;;13.25;7.53;;;;;;;7.70;71.76;99690.34;5093865;28;20098;-79
2023/03/29 07:14:47;;;;;;;14.07;7.70;;;;;;;7.73;71.57;99686.78;5093692;28;20048;-79
2023/03/29 07:17:15;;;;;;;14.43;8.35;;;;;;;7.77;71.43;99696.16;5093543;28;20405;-79
2023/03/29 07:19:42;;;;;;;13.57;7.97;;;;;;;7.80;71.75;99699.50;5093560;28;20568;-79
2023/03/29 07:22:08;;;;;;;9.60;7.50;;;;;;;7.83;72.05;99690.66;5093880;28;20114;-79
2023/03/29 07:24:35;;;;;;;13.52;8.55;;;;;;;7.86;72.11;99690.50;5093759;28;20060;-79
2023/03/29 07:27:02;;;;;;;13.20;8.48;;;;;;;7.90;72.09;99693.84;5092525;28;20518;-80
2023/03/29 07:29:31;;;;;;;14.27;8.82;;;;;;;7.94;72.13;99711.13;5092290;28;20098;-79
2023/03/29 07:31:57;;;;;;;13.68;10.07;;;;;;;7.98;72.12;99706.56;5093298;28;20530;-79
2023/03/29 07:34:24;;;;;;;13.23;9.50;;;;;;;8.02;72.37;99708.13;5092154;28;20758;-79
2023/03/29 07:36:51;;;;;;;13.38;9.85;;;;;;;8.07;72.50;99700.88;5092767;28;20099;-79
2023/03/29 07:39:17;;;;;;;14.55;9.68;;;;;;;8.11;72.35;99710.31;5093481;28;20055;-79
2023/03/29 07:41:44;;;;;;;16.45;10.77;;;;;;;8.15;72.50;99708.41;5093340;28;20578;-79
2023/03/29 07:44:10;;;;;;;16.35;10.73;;;;;;;8.19;72.35;99700.31;5093249;28;20583;-79
2023/03/29 07:46:37;;;;;;;16.38;11.10;;;;;;;8.23;72.25;99705.41;5092454;28;20052;-79
2023/03/29 07:49:04;;;;;;;17.73;11.52;;;;;;;8.24;72.18;99707.09;5093188;28;20067;-79
2023/03/29 07:51:31;;;;;;;16.38;12.00;;;;;;;8.27;72.29;99712.22;5093094;28;20905;-79
2023/03/29 07:53:58;;;;;;;14.95;11.50;;;;;;;8.30;72.54;99710.28;5093206;28;20083;-79
2023/03/29 07:56:25;;;;;;;16.58;9.98;;;;;;;8.33;72.28;99706.66;5092518;28;20122;-79
2023/03/29 07:58:52;;;;;;;15.50;10.05;;;;;;;8.35;72.51;99708.28;5092633;28;20150;-79
2023/03/29 08:01:19;;;;;;;12.80;10.20;;;;;;;8.40;72.60;99710.69;5092767;28;20113;-79
2023/03/29 08:03:46;;;;;;;17.80;10.52;;;;;;;8.42;72.83;99708.84;5092461;28;20066;-79
2023/03/29 08:06:14;;;;;;;12.65;9.65;;;;;;;8.47;72.79;99713.84;5091185;28;20079;-78
2023/03/29 08:08:41;;;;;;;13.50;10.23;;;;;;;8.52;72.65;99721.50;5092474;28;20143;-79
2023/03/29 08:11:08;;;;;;;11.82;9.73;;;;;;;8.56;72.38;99715.22;5091488;28;20512;-79
2023/03/29 08:13:35;;;;;;;13.27;9.55;;;;;;;8.61;72.58;99721.09;5092617;28;20471;-79
2023/03/29 08:16:04;;;;;;;17.35;9.30;;;;;;;8.66;72.71;99708.59;5092017;28;20570;-79
2023/03/29 08:18:31;;;;;;;13.85;9.20;;;;;;;8.69;72.39;99700.56;5092417;28;20109;-79
2023/03/29 08:21:00;;;;;;;17.25;10.15;;;;;;;8.73;72.16;99701.25;5092510;28;20102;-79
2023/03/29 08:23:27;;;;;;;17.27;9.82;;;;;;;8.77;72.14;99702.78;5092588;28;20071;-79
2023/03/29 08:25:53;;;;;;;12.88;9.10;;;;;;;8.80;72.32;99700.03;5092110;28;20110;-79
2023/03/29 08:28:20;;;;;;;14.52;8.90;;;;;;;8.85;72.29;99697.16;5090545;28;20067;-79
2023/03/29 08:30:46;;;;;;;12.77;8.77;;;;;;;8.89;72.20;99700.50;5092447;28;20051;-80
2023/03/29 08:33:13;;;;;;;14.77;9.15;;;;;;;8.93;72.18;99700.25;5092541;28;20059;-79
2023/03/29 08:35:40;;;;;;;15.27;9.07;;;;;;;8.99;72.47;99704.34;5091800;28;20476;-79
2023/03/29 08:38:09;;;;;;;16.98;9.18;;;;;;;9.04;72.23;99706.72;5090663;28;20044;-80
2023/03/29 08:40:36;;;;;;;11.27;8.02;;;;;;;9.07;72.04;99707.41;5092175;28;20047;-79
2023/03/29 08:43:20;;;;;;;11.85;8.02;;;;;;;9.08;71.55;99697.78;5091967;28;20567;-79
2023/03/29 08:45:59;;;;;;;12.65;8.23;;;;;;;9.16;71.63;99689.47;5091642;28;20044;-80
2023/03/29 08:48:37;;;;;;;17.58;8.70;;;;;;;9.21;71.63;99690.94;5091706;28;20086;-80
2023/03/29 08:51:12;;;;;;;15.63;8.05;;;;;;;9.27;71.96;99688.94;5091935;28;20542;-79
2023/03/29 08:53:43;;;;;;;12.10;8.00;;;;;;;9.33;71.92;99685.97;5091933;28;20135;-79
2023/03/29 08:56:17;;;;;;;14.93;8.15;;;;;;;9.39;71.95;99685.66;5091815;28;20252;-79
2023/03/29 08:58:45;;;;;;;10.50;7.80;;;;;;;9.46;71.98;99692.25;5091454;28;20707;-79
2023/03/29 09:01:12;;;;;;;9.55;7.22;;;;;;;9.53;72.01;99695.41;5091946;28;20044;-79
2023/03/29 09:03:49;;;;;;;10.93;7.50;;;;;;;9.58;70.92;99687.28;5091699;28;20052;-79
2023/03/29 09:06:20;;;;;;;9.98;7.45;;;;;;;9.65;71.39;99697.38;5091644;28;20110;-79
2023/03/29 09:08:49;;;;;;;9.18;6.90;;;;;;;9.74;71.28;99705.69;5091410;28;20088;-80
2023/03/29 09:11:22;;;;;;;9.30;7.10;;;;;;;9.80;70.43;99712.41;5092422;28;20048;-79
2023/03/29 09:14:14;;;;;;;13.40;6.90;;;;;;;9.84;69.99;99714.78;5091547;28;20385;-80
2023/03/29 09:16:47;;;;;;;12.43;6.95;;;;;;;9.93;70.98;99713.41;5090263;28;20052;-78
2023/03/29 09:19:41;;;;;;;9.85;6.53;;;;;;;9.96;69.39;99712.41;5091522;28;20090;-80
2023/03/29 09:22:08;;;;;;;;;;;;;;;10.04;68.68;99697.91;5092021;28;20062;-79
2023/03/29 09:24:52;;;;;;;8.15;6.03;;;;;;;10.14;69.84;99702.66;5091257;28;19927;-80
2023/03/29 09:30:10;;;;;;;9.05;6.43;;;;;;;10.27;69.46;99695.75;4989563;28;20209;-80
2023/03/29 09:32:51;;;;;;;10.05;6.13;;;;;;;10.37;69.80;99695.22;4993043;28;20149;-80
2023/03/29 09:35:22;;;;;;;9.38;6.30;;;;;;;10.48;70.19;99694.63;5010218;28;20081;-80
2023/03/29 09:37:51;;;;;;;8.63;6.50;;;;;;;10.58;70.68;99703.69;5010328;28;20111;-80
2023/03/29 09:40:37;;;;;;;8.57;6.55;;;;;;;10.62;68.38;99692.03;5010716;28;20053;-80
2023/03/29 09:43:08;;;;;;;8.43;5.70;;;;;;;10.74;70.11;99690.50;5010554;28;20053;-80
2023/03/29 09:45:37;;;;;;;8.20;6.15;;;;;;;10.82;70.33;99688.25;5010086;28;20107;-80
2023/03/29 09:48:12;;;;;;;9.50;6.13;;;;;;;10.87;69.00;99687.16;5010341;28;20519;-80
2023/03/29 09:50:47;;;;;;;9.75;6.35;;;;;;;10.92;68.56;99685.09;5010341;28;20083;-80
2023/03/29 09:53:15;;;;;;;12.10;7.07;;;;;;;10.99;69.55;99701.38;5010624;28;20484;-80
2023/03/29 09:55:43;;;;;;;9.35;6.38;;;;;;;10.98;68.93;99700.50;5009981;28;20108;-80
2023/03/29 09:58:15;;;;;;;14.60;7.10;;;;;;;10.95;68.89;99693.63;5009605;28;20049;-80
2023/03/29 10:00:42;;;;;;;15.35;6.55;;;;;;;10.97;69.51;99693.53;5010565;28;20045;-80
2023/03/29 10:03:08;;;;;;;8.50;5.68;;;;;;;10.95;69.61;99693.63;5010406;28;20050;-80
2023/03/29 10:05:36;;;;;;;8.65;5.93;;;;;;;10.94;69.68;99701.63;5009975;28;20053;-80
2023/03/29 10:08:16;;;;;;;9.73;6.30;;;;;;;10.90;68.83;99706.22;4992384;28;20054;-80
2023/03/29 10:10:45;;;;;;;9.32;6.15;;;;;;;10.93;69.63;99692.91;4993003;28;20106;-80
2023/03/29 10:13:21;;;;;;;11.20;6.70;;;;;;;10.92;69.07;99698.25;5010071;28;20108;-80
2023/03/29 10:16:02;;;;;;;9.73;6.60;;;;;;;10.89;69.00;99706.31;5009856;28;20046;-80
2023/03/29 10:18:31;;;;;;;13.10;6.70;;;;;;;10.91;69.89;99697.38;5009644;28;20181;-80
2023/03/29 10:21:01;;;;;;;7.68;6.13;;;;;;;10.92;70.02;99693.81;5010082;28;20049;-80
2023/03/29 10:23:33;;;;;;;12.35;6.60;;;;;;;10.92;69.62;99691.19;5010318;28;20050;-80
2023/03/29 10:26:06;;;;;;;12.80;7.10;;;;;;;10.94;70.13;99680.56;5009849;28;20096;-80
2023/03/29 10:28:35;;;;;;;;;;;;;;;10.95;68.27;99687.50;4995894;28;20053;-79
2023/03/29 10:31:02;;;;;;;8.57;5.97;;;;;;;11.01;70.33;99679.25;5014124;28;20004;-80
2023/03/29 10:33:32;;;;;;;11.35;6.88;;;;;;;11.01;70.39;99687.16;4996514;28;20077;-80
2023/03/29 10:36:02;;;;;;;13.85;6.95;;;;;;;11.03;70.37;99681.81;5013504;28;20085;-80
2023/03/29 10:38:29;;;;;;;10.50;6.97;;;;;;;11.06;70.90;99681.59;4996082;28;20420;-80
2023/03/29 10:41:04;;;;;;;11.98;7.10;;;;;;;11.06;69.65;99687.72;5014121;28;20049;-80
2023/03/29 10:43:36;;;;;;;10.73;7.13;;;;;;;11.13;70.01;99684.72;5013997;28;20085;-80
2023/03/29 10:46:09;;;;;;;13.57;7.10;;;;;;;11.16;70.50;99689.81;5013361;28;20042;-80
2023/03/29 10:48:36;;;;;;;11.27;7.40;;;;;;;11.21;70.89;99682.44;5013501;28;20145;-80
2023/03/29 10:51:04;;;;;;;13.07;7.47;;;;;;;11.25;70.93;99673.41;5013751;28;20107;-80
2023/03/29 10:53:33;;;;;;;12.13;6.90;;;;;;;11.27;70.81;99670.69;5013721;28;20417;-80
2023/03/29 10:56:27;;;;;;;11.77;7.18;;;;;;;11.25;70.05;99668.16;5013265;28;20046;-80
2023/03/29 10:59:13;;;;;;;10.00;7.30;;;;;;;11.26;70.05;99669.00;5012949;28;20467;-80
2023/03/29 11:02:13;;;;;;;12.80;7.07;;;;;;;11.23;69.92;99674.47;5013769;28;20046;-80
2023/03/29 11:04:48;;;;;;;11.18;6.80;;;;;;;11.22;70.65;99673.63;5013382;28;20049;-80
2023/03/29 11:07:25;;;;;;;9.90;6.85;;;;;;;11.22;71.23;99689.44;4995266;28;20107;-80
2023/03/29 11:10:10;;;;;;;13.20;7.03;;;;;;;11.17;70.99;99689.72;5013372;28;20520;-80
2023/03/29 11:12:43;;;;;;;11.90;6.97;;;;;;;11.17;71.12;99694.13;4995869;28;20397;-80
2023/03/29 11:15:33;;;;;;;10.15;7.13;;;;;;;11.14;71.06;99691.69;5012830;28;20054;-80
2023/03/29 11:18:21;;;;;;;8.93;7.22;;;;;;;11.12;71.18;99693.56;5012723;28;20061;-80
2023/03/29 11:21:06;;;;;;;10.90;7.38;;;;;;;11.06;71.45;99687.72;5013145;28;20484;-80
2023/03/29 11:23:53;;;;;;;9.65;7.30;;;;;;;11.05;71.80;99683.41;4996256;28;20082;-80
2023/03/29 11:26:26;;;;;;;10.13;7.40;;;;;;;11.05;72.48;99680.78;5012883;28;20042;-80
2023/03/29 11:29:18;;;;;;;8.70;7.70;;;;;;;11.04;72.70;99679.09;5012427;28;20137;-80
2023/03/29 11:32:12;;;;;;;12.23;8.07;;;;;;;11.06;72.95;99668.44;5013022;28;20112;-80
2023/03/29 11:34:48;;;;;;;;;;;;;;;11.12;72.41;99670.72;5013607;28;20177;-80
2023/03/29 11:37:36;;;;;;;11.50;8.43;;;;;;;11.15;72.79;99670.53;5012469;28;19976;-80
2023/03/29 11:40:38;;;;;;;14.35;8.75;;;;;;;11.15;72.80;99673.16;5012131;28;20062;-80
2023/03/29 11:43:12;;;;;;;16.70;10.43;;;;;;;11.18;72.88;99674.75;4995358;28;20108;-80
2023/03/29 11:45:45;;;;;;;15.52;10.43;;;;;;;11.17;73.12;99670.41;5012556;28;20081;-80
2023/03/29 11:48:37;;;;;;;17.23;11.75;;;;;;;11.12;73.15;99668.06;5012254;28;20081;-80
2023/03/29 11:51:22;;;;;;;18.20;11.38;;;;;;;11.12;73.26;99670.72;5002048;28;20050;-80
2023/03/29 11:53:56;;;;;;;17.98;10.75;;;;;;;11.14;73.62;99662.72;5012737;28;20077;-80
2023/03/29 11:56:39;;;;;;;13.02;9.98;;;;;;;11.12;73.71;99665.44;5012054;28;20416;-80